sensor_id;sensor_type;location;lat;lon;timestamp;P1;durP1;ratioP1;P2;durP2;ratioP2
14474;SDS011;7323;50.848;4.334;2023-02-11T00:01:08;13.30;;;8.40;;
14474;SDS011;7323;50.848;4.334;2023-02-11T00:03:39;15.27;;;8.23;;
14474;SDS011;7323;50.848;4.334;2023-02-11T00:06:05;15.47;;;8.60;;
14474;SDS011;7323;50.848;4.334;2023-02-11T00:08:35;15.63;;;9.10;;
14474;SDS011;7323;50.848;4.334;2023-02-11T00:11:05;15.07;;;8.87;;
14474;SDS011;7323;50.848;4.334;2023-02-11T00:13:33;15.83;;;8.03;;
14474;SDS011;7323;50.848;4.334;2023-02-11T00:16:04;15.93;;;8.73;;
14474;SDS011;7323;50.848;4.334;2023-02-11T00:18:37;19.27;;;8.63;;
14474;SDS011;7323;50.848;4.334;2023-02-11T00:21:08;13.63;;;8.17;;
14474;SDS011;7323;50.848;4.334;2023-02-11T00:23:35;12.50;;;8.17;;
14474;SDS011;7323;50.848;4.334;2023-02-11T00:26:24;16.93;;;8.63;;
14474;SDS011;7323;50.848;4.334;2023-02-11T00:29:02;14.37;;;8.63;;
14474;SDS011;7323;50.848;4.334;2023-02-11T00:31:35;14.37;;;7.63;;
14474;SDS011;7323;50.848;4.334;2023-02-11T00:34:02;14.57;;;7.20;;
14474;SDS011;7323;50.848;4.334;2023-02-11T00:36:28;16.00;;;8.13;;
14474;SDS011;7323;50.848;4.334;2023-02-11T00:39:00;13.87;;;8.00;;
14474;SDS011;7323;50.848;4.334;2023-02-11T00:41:26;18.37;;;8.13;;
14474;SDS011;7323;50.848;4.334;2023-02-11T00:43:52;15.83;;;8.13;;
14474;SDS011;7323;50.848;4.334;2023-02-11T00:46:19;13.53;;;7.07;;
14474;SDS011;7323;50.848;4.334;2023-02-11T00:51:16;14.13;;;7.37;;
14474;SDS011;7323;50.848;4.334;2023-02-11T00:53:43;15.97;;;8.37;;
14474;SDS011;7323;50.848;4.334;2023-02-11T00:56:09;14.50;;;8.27;;
14474;SDS011;7323;50.848;4.334;2023-02-11T00:58:35;14.73;;;7.90;;
14474;SDS011;7323;50.848;4.334;2023-02-11T01:01:01;15.97;;;8.00;;
14474;SDS011;7323;50.848;4.334;2023-02-11T01:03:27;14.60;;;7.60;;
14474;SDS011;7323;50.848;4.334;2023-02-11T01:05:53;10.97;;;7.63;;
14474;SDS011;7323;50.848;4.334;2023-02-11T01:08:19;17.77;;;8.87;;
14474;SDS011;7323;50.848;4.334;2023-02-11T01:10:52;19.03;;;8.40;;
14474;SDS011;7323;50.848;4.334;2023-02-11T01:13:22;16.07;;;9.17;;
14474;SDS011;7323;50.848;4.334;2023-02-11T01:15:48;13.60;;;8.00;;
14474;SDS011;7323;50.848;4.334;2023-02-11T01:18:15;14.33;;;7.90;;
14474;SDS011;7323;50.848;4.334;2023-02-11T01:20:41;16.90;;;8.03;;
14474;SDS011;7323;50.848;4.334;2023-02-11T01:23:07;15.20;;;7.70;;
14474;SDS011;7323;50.848;4.334;2023-02-11T01:25:33;16.30;;;8.37;;
14474;SDS011;7323;50.848;4.334;2023-02-11T01:27:59;12.67;;;8.27;;
14474;SDS011;7323;50.848;4.334;2023-02-11T01:30:26;13.17;;;8.10;;
14474;SDS011;7323;50.848;4.334;2023-02-11T01:32:53;14.53;;;8.47;;
14474;SDS011;7323;50.848;4.334;2023-02-11T01:35:19;15.53;;;7.97;;
14474;SDS011;7323;50.848;4.334;2023-02-11T01:37:45;14.27;;;8.10;;
14474;SDS011;7323;50.848;4.334;2023-02-11T01:40:14;14.83;;;7.77;;
14474;SDS011;7323;50.848;4.334;2023-02-11T01:42:44;11.63;;;7.80;;
14474;SDS011;7323;50.848;4.334;2023-02-11T01:48:14;16.87;;;8.43;;
14474;SDS011;7323;50.848;4.334;2023-02-11T01:50:44;20.33;;;8.33;;
14474;SDS011;7323;50.848;4.334;2023-02-11T01:53:15;15.00;;;7.90;;
14474;SDS011;7323;50.848;4.334;2023-02-11T01:56:00;15.93;;;8.20;;
14474;SDS011;7323;50.848;4.334;2023-02-11T01:58:47;18.33;;;8.87;;
14474;SDS011;7323;50.848;4.334;2023-02-11T02:01:15;15.73;;;8.13;;
14474;SDS011;7323;50.848;4.334;2023-02-11T02:03:45;16.83;;;8.40;;
14474;SDS011;7323;50.848;4.334;2023-02-11T02:06:18;15.53;;;8.40;;
14474;SDS011;7323;50.848;4.334;2023-02-11T02:14:36;11.73;;;7.27;;
14474;SDS011;7323;50.848;4.334;2023-02-11T02:17:05;15.63;;;7.83;;
14474;SDS011;7323;50.848;4.334;2023-02-11T02:22:46;13.67;;;7.10;;
14474;SDS011;7323;50.848;4.334;2023-02-11T02:28:19;13.30;;;7.97;;
14474;SDS011;7323;50.848;4.334;2023-02-11T02:31:18;17.00;;;7.63;;
14474;SDS011;7323;50.848;4.334;2023-02-11T02:37:06;13.43;;;7.53;;
14474;SDS011;7323;50.848;4.334;2023-02-11T02:39:46;14.10;;;7.70;;
14474;SDS011;7323;50.848;4.334;2023-02-11T02:42:19;17.33;;;7.90;;
14474;SDS011;7323;50.848;4.334;2023-02-11T02:44:48;16.70;;;6.47;;
14474;SDS011;7323;50.848;4.334;2023-02-11T02:47:15;14.67;;;7.70;;
14474;SDS011;7323;50.848;4.334;2023-02-11T02:49:40;14.90;;;7.30;;
14474;SDS011;7323;50.848;4.334;2023-02-11T02:52:10;15.83;;;7.33;;
14474;SDS011;7323;50.848;4.334;2023-02-11T02:55:03;15.47;;;7.00;;
14474;SDS011;7323;50.848;4.334;2023-02-11T03:03:34;11.83;;;6.53;;
14474;SDS011;7323;50.848;4.334;2023-02-11T03:09:05;11.60;;;7.10;;
14474;SDS011;7323;50.848;4.334;2023-02-11T03:11:36;12.93;;;7.33;;
14474;SDS011;7323;50.848;4.334;2023-02-11T03:14:04;15.40;;;7.10;;
14474;SDS011;7323;50.848;4.334;2023-02-11T03:16:33;15.40;;;6.67;;
14474;SDS011;7323;50.848;4.334;2023-02-11T03:19:13;14.47;;;7.40;;
14474;SDS011;7323;50.848;4.334;2023-02-11T03:21:44;13.60;;;7.27;;
14474;SDS011;7323;50.848;4.334;2023-02-11T03:24:22;13.17;;;7.43;;
14474;SDS011;7323;50.848;4.334;2023-02-11T03:27:00;14.73;;;8.50;;
14474;SDS011;7323;50.848;4.334;2023-02-11T03:29:39;12.27;;;6.90;;
14474;SDS011;7323;50.848;4.334;2023-02-11T03:32:22;15.90;;;7.50;;
14474;SDS011;7323;50.848;4.334;2023-02-11T03:35:00;15.70;;;8.57;;
14474;SDS011;7323;50.848;4.334;2023-02-11T03:37:32;13.23;;;8.30;;
14474;SDS011;7323;50.848;4.334;2023-02-11T03:40:30;16.53;;;7.77;;
14474;SDS011;7323;50.848;4.334;2023-02-11T03:45:35;14.27;;;7.80;;
14474;SDS011;7323;50.848;4.334;2023-02-11T03:48:10;14.23;;;7.67;;
14474;SDS011;7323;50.848;4.334;2023-02-11T03:50:40;13.83;;;7.77;;
14474;SDS011;7323;50.848;4.334;2023-02-11T03:53:06;12.30;;;7.37;;
14474;SDS011;7323;50.848;4.334;2023-02-11T03:55:35;12.50;;;7.70;;
14474;SDS011;7323;50.848;4.334;2023-02-11T03:58:03;16.57;;;7.47;;
14474;SDS011;7323;50.848;4.334;2023-02-11T04:00:30;12.90;;;8.00;;
14474;SDS011;7323;50.848;4.334;2023-02-11T04:02:57;13.00;;;8.00;;
14474;SDS011;7323;50.848;4.334;2023-02-11T04:05:24;12.50;;;7.60;;
14474;SDS011;7323;50.848;4.334;2023-02-11T04:07:53;15.37;;;8.07;;
14474;SDS011;7323;50.848;4.334;2023-02-11T04:10:19;17.87;;;8.20;;
14474;SDS011;7323;50.848;4.334;2023-02-11T04:12:48;15.70;;;8.10;;
14474;SDS011;7323;50.848;4.334;2023-02-11T04:15:15;15.47;;;8.67;;
14474;SDS011;7323;50.848;4.334;2023-02-11T04:17:47;16.30;;;8.80;;
14474;SDS011;7323;50.848;4.334;2023-02-11T04:20:13;16.03;;;8.43;;
14474;SDS011;7323;50.848;4.334;2023-02-11T04:22:38;17.27;;;8.73;;
14474;SDS011;7323;50.848;4.334;2023-02-11T04:25:04;13.83;;;8.70;;
14474;SDS011;7323;50.848;4.334;2023-02-11T04:27:31;16.10;;;8.13;;
14474;SDS011;7323;50.848;4.334;2023-02-11T04:29:59;15.77;;;8.17;;
14474;SDS011;7323;50.848;4.334;2023-02-11T04:32:26;20.27;;;8.80;;
14474;SDS011;7323;50.848;4.334;2023-02-11T04:34:52;14.63;;;8.47;;
14474;SDS011;7323;50.848;4.334;2023-02-11T04:37:18;14.07;;;8.40;;
14474;SDS011;7323;50.848;4.334;2023-02-11T04:39:44;17.87;;;9.00;;
14474;SDS011;7323;50.848;4.334;2023-02-11T04:42:11;17.00;;;8.97;;
14474;SDS011;7323;50.848;4.334;2023-02-11T04:44:37;16.90;;;9.43;;
14474;SDS011;7323;50.848;4.334;2023-02-11T04:47:02;15.13;;;8.30;;
14474;SDS011;7323;50.848;4.334;2023-02-11T04:49:28;12.00;;;8.33;;
14474;SDS011;7323;50.848;4.334;2023-02-11T04:51:54;16.13;;;9.17;;
14474;SDS011;7323;50.848;4.334;2023-02-11T04:54:19;17.20;;;9.67;;
14474;SDS011;7323;50.848;4.334;2023-02-11T04:56:46;16.20;;;9.57;;
14474;SDS011;7323;50.848;4.334;2023-02-11T04:59:13;16.90;;;9.43;;
14474;SDS011;7323;50.848;4.334;2023-02-11T05:01:40;17.10;;;9.40;;
14474;SDS011;7323;50.848;4.334;2023-02-11T05:04:06;15.80;;;9.13;;
14474;SDS011;7323;50.848;4.334;2023-02-11T05:06:32;16.30;;;9.93;;
14474;SDS011;7323;50.848;4.334;2023-02-11T05:09:00;14.63;;;9.33;;
14474;SDS011;7323;50.848;4.334;2023-02-11T05:11:26;23.50;;;10.23;;
14474;SDS011;7323;50.848;4.334;2023-02-11T05:13:52;17.07;;;9.30;;
14474;SDS011;7323;50.848;4.334;2023-02-11T05:16:18;20.90;;;10.43;;
14474;SDS011;7323;50.848;4.334;2023-02-11T05:18:44;14.13;;;9.53;;
14474;SDS011;7323;50.848;4.334;2023-02-11T05:21:14;18.20;;;9.80;;
14474;SDS011;7323;50.848;4.334;2023-02-11T05:23:42;19.83;;;10.63;;
14474;SDS011;7323;50.848;4.334;2023-02-11T05:26:08;17.20;;;10.30;;
14474;SDS011;7323;50.848;4.334;2023-02-11T05:28:35;16.30;;;9.90;;
14474;SDS011;7323;50.848;4.334;2023-02-11T05:31:01;19.50;;;11.83;;
14474;SDS011;7323;50.848;4.334;2023-02-11T05:33:27;20.93;;;10.83;;
14474;SDS011;7323;50.848;4.334;2023-02-11T05:35:59;20.77;;;11.20;;
14474;SDS011;7323;50.848;4.334;2023-02-11T05:38:26;18.30;;;10.73;;
14474;SDS011;7323;50.848;4.334;2023-02-11T05:40:52;17.03;;;10.30;;
14474;SDS011;7323;50.848;4.334;2023-02-11T05:43:18;17.40;;;11.43;;
14474;SDS011;7323;50.848;4.334;2023-02-11T05:45:44;17.43;;;11.17;;
14474;SDS011;7323;50.848;4.334;2023-02-11T05:48:10;19.70;;;12.17;;
14474;SDS011;7323;50.848;4.334;2023-02-11T05:50:35;19.43;;;11.00;;
14474;SDS011;7323;50.848;4.334;2023-02-11T05:53:03;18.47;;;11.53;;
14474;SDS011;7323;50.848;4.334;2023-02-11T05:55:32;19.70;;;12.03;;
14474;SDS011;7323;50.848;4.334;2023-02-11T05:57:58;19.83;;;12.07;;
14474;SDS011;7323;50.848;4.334;2023-02-11T06:00:24;18.77;;;12.03;;
14474;SDS011;7323;50.848;4.334;2023-02-11T06:02:50;21.53;;;12.43;;
14474;SDS011;7323;50.848;4.334;2023-02-11T06:05:16;16.57;;;12.57;;
14474;SDS011;7323;50.848;4.334;2023-02-11T06:07:42;22.07;;;12.73;;
14474;SDS011;7323;50.848;4.334;2023-02-11T06:10:08;21.27;;;12.90;;
14474;SDS011;7323;50.848;4.334;2023-02-11T06:12:34;25.23;;;13.33;;
14474;SDS011;7323;50.848;4.334;2023-02-11T06:15:01;26.20;;;13.87;;
14474;SDS011;7323;50.848;4.334;2023-02-11T06:17:27;26.97;;;14.00;;
14474;SDS011;7323;50.848;4.334;2023-02-11T06:20:05;23.53;;;13.73;;
14474;SDS011;7323;50.848;4.334;2023-02-11T06:22:32;24.57;;;13.70;;
14474;SDS011;7323;50.848;4.334;2023-02-11T06:24:58;22.50;;;14.03;;
14474;SDS011;7323;50.848;4.334;2023-02-11T06:27:24;21.03;;;14.23;;
14474;SDS011;7323;50.848;4.334;2023-02-11T06:29:49;20.57;;;14.33;;
14474;SDS011;7323;50.848;4.334;2023-02-11T06:32:18;24.80;;;15.00;;
14474;SDS011;7323;50.848;4.334;2023-02-11T06:34:47;24.53;;;14.63;;
14474;SDS011;7323;50.848;4.334;2023-02-11T06:37:16;23.03;;;13.93;;
14474;SDS011;7323;50.848;4.334;2023-02-11T06:39:42;27.27;;;15.33;;
14474;SDS011;7323;50.848;4.334;2023-02-11T06:42:09;23.60;;;14.60;;
14474;SDS011;7323;50.848;4.334;2023-02-11T06:44:34;22.23;;;14.67;;
14474;SDS011;7323;50.848;4.334;2023-02-11T06:49:29;25.37;;;16.13;;
14474;SDS011;7323;50.848;4.334;2023-02-11T06:51:55;22.57;;;15.67;;
14474;SDS011;7323;50.848;4.334;2023-02-11T06:54:20;25.77;;;15.73;;
14474;SDS011;7323;50.848;4.334;2023-02-11T06:56:46;27.20;;;16.77;;
14474;SDS011;7323;50.848;4.334;2023-02-11T06:59:17;26.87;;;16.90;;
14474;SDS011;7323;50.848;4.334;2023-02-11T07:01:47;32.43;;;17.73;;
14474;SDS011;7323;50.848;4.334;2023-02-11T07:04:12;31.93;;;16.87;;
14474;SDS011;7323;50.848;4.334;2023-02-11T07:06:40;28.53;;;16.70;;
14474;SDS011;7323;50.848;4.334;2023-02-11T07:09:06;26.17;;;16.63;;
14474;SDS011;7323;50.848;4.334;2023-02-11T07:11:32;24.80;;;17.43;;
14474;SDS011;7323;50.848;4.334;2023-02-11T07:13:59;29.53;;;18.40;;
14474;SDS011;7323;50.848;4.334;2023-02-11T07:16:27;27.40;;;17.53;;
14474;SDS011;7323;50.848;4.334;2023-02-11T07:18:54;27.43;;;17.07;;
14474;SDS011;7323;50.848;4.334;2023-02-11T07:21:21;24.27;;;17.20;;
14474;SDS011;7323;50.848;4.334;2023-02-11T07:23:47;25.73;;;16.37;;
14474;SDS011;7323;50.848;4.334;2023-02-11T07:26:14;26.30;;;16.57;;
14474;SDS011;7323;50.848;4.334;2023-02-11T07:28:43;29.73;;;17.63;;
14474;SDS011;7323;50.848;4.334;2023-02-11T07:31:15;26.57;;;16.43;;
14474;SDS011;7323;50.848;4.334;2023-02-11T07:33:50;23.50;;;16.53;;
14474;SDS011;7323;50.848;4.334;2023-02-11T07:36:17;25.57;;;16.63;;
14474;SDS011;7323;50.848;4.334;2023-02-11T07:38:43;26.47;;;16.70;;
14474;SDS011;7323;50.848;4.334;2023-02-11T07:41:10;33.13;;;18.33;;
14474;SDS011;7323;50.848;4.334;2023-02-11T07:43:37;28.00;;;17.13;;
14474;SDS011;7323;50.848;4.334;2023-02-11T07:46:05;28.80;;;17.47;;
14474;SDS011;7323;50.848;4.334;2023-02-11T07:48:32;26.97;;;17.63;;
14474;SDS011;7323;50.848;4.334;2023-02-11T07:51:14;32.70;;;18.43;;
14474;SDS011;7323;50.848;4.334;2023-02-11T07:53:42;29.00;;;18.50;;
14474;SDS011;7323;50.848;4.334;2023-02-11T07:56:09;27.73;;;18.60;;
14474;SDS011;7323;50.848;4.334;2023-02-11T07:58:36;29.30;;;18.30;;
14474;SDS011;7323;50.848;4.334;2023-02-11T08:01:02;33.00;;;19.37;;
14474;SDS011;7323;50.848;4.334;2023-02-11T08:03:30;31.07;;;18.93;;
14474;SDS011;7323;50.848;4.334;2023-02-11T08:05:57;37.43;;;20.20;;
14474;SDS011;7323;50.848;4.334;2023-02-11T08:08:24;35.43;;;20.50;;
14474;SDS011;7323;50.848;4.334;2023-02-11T08:10:51;35.93;;;20.40;;
14474;SDS011;7323;50.848;4.334;2023-02-11T08:13:17;37.80;;;19.90;;
14474;SDS011;7323;50.848;4.334;2023-02-11T08:15:42;34.37;;;20.07;;
14474;SDS011;7323;50.848;4.334;2023-02-11T08:18:09;31.10;;;21.10;;
14474;SDS011;7323;50.848;4.334;2023-02-11T08:20:34;38.47;;;21.60;;
14474;SDS011;7323;50.848;4.334;2023-02-11T08:23:00;39.10;;;23.00;;
14474;SDS011;7323;50.848;4.334;2023-02-11T08:27:54;41.67;;;22.73;;
14474;SDS011;7323;50.848;4.334;2023-02-11T08:30:21;37.70;;;21.63;;
14474;SDS011;7323;50.848;4.334;2023-02-11T08:32:47;35.50;;;21.87;;
14474;SDS011;7323;50.848;4.334;2023-02-11T08:35:18;42.83;;;24.20;;
14474;SDS011;7323;50.848;4.334;2023-02-11T08:37:58;42.17;;;23.60;;
14474;SDS011;7323;50.848;4.334;2023-02-11T08:40:27;44.43;;;24.10;;
14474;SDS011;7323;50.848;4.334;2023-02-11T08:42:54;42.37;;;23.27;;
14474;SDS011;7323;50.848;4.334;2023-02-11T08:45:20;40.17;;;24.03;;
14474;SDS011;7323;50.848;4.334;2023-02-11T08:47:55;43.07;;;23.50;;
14474;SDS011;7323;50.848;4.334;2023-02-11T08:50:20;46.00;;;26.60;;
14474;SDS011;7323;50.848;4.334;2023-02-11T08:52:46;40.30;;;24.13;;
14474;SDS011;7323;50.848;4.334;2023-02-11T08:55:12;46.60;;;25.10;;
14474;SDS011;7323;50.848;4.334;2023-02-11T08:57:41;40.63;;;24.70;;
14474;SDS011;7323;50.848;4.334;2023-02-11T09:00:06;45.23;;;25.03;;
14474;SDS011;7323;50.848;4.334;2023-02-11T09:02:35;42.63;;;24.43;;
14474;SDS011;7323;50.848;4.334;2023-02-11T09:05:01;48.47;;;25.30;;
14474;SDS011;7323;50.848;4.334;2023-02-11T09:07:31;43.47;;;25.07;;
14474;SDS011;7323;50.848;4.334;2023-02-11T09:12:34;44.57;;;25.40;;
14474;SDS011;7323;50.848;4.334;2023-02-11T09:15:00;45.50;;;26.00;;
14474;SDS011;7323;50.848;4.334;2023-02-11T09:20:20;46.37;;;25.80;;
14474;SDS011;7323;50.848;4.334;2023-02-11T09:22:48;46.37;;;26.30;;
14474;SDS011;7323;50.848;4.334;2023-02-11T09:25:15;47.23;;;26.37;;
14474;SDS011;7323;50.848;4.334;2023-02-11T09:27:44;43.17;;;25.87;;
14474;SDS011;7323;50.848;4.334;2023-02-11T09:30:10;51.63;;;26.43;;
14474;SDS011;7323;50.848;4.334;2023-02-11T09:32:36;45.00;;;27.10;;
14474;SDS011;7323;50.848;4.334;2023-02-11T09:35:03;43.57;;;26.80;;
14474;SDS011;7323;50.848;4.334;2023-02-11T09:37:30;44.93;;;26.47;;
14474;SDS011;7323;50.848;4.334;2023-02-11T09:39:57;48.53;;;27.33;;
14474;SDS011;7323;50.848;4.334;2023-02-11T09:42:41;46.80;;;26.00;;
14474;SDS011;7323;50.848;4.334;2023-02-11T09:45:25;44.37;;;26.40;;
14474;SDS011;7323;50.848;4.334;2023-02-11T09:48:00;45.73;;;26.97;;
14474;SDS011;7323;50.848;4.334;2023-02-11T09:50:31;49.07;;;28.00;;
14474;SDS011;7323;50.848;4.334;2023-02-11T09:53:09;46.83;;;27.57;;
14474;SDS011;7323;50.848;4.334;2023-02-11T09:55:47;50.00;;;27.43;;
14474;SDS011;7323;50.848;4.334;2023-02-11T09:58:27;48.50;;;27.97;;
14474;SDS011;7323;50.848;4.334;2023-02-11T10:14:24;49.37;;;29.47;;
14474;SDS011;7323;50.848;4.334;2023-02-11T10:23:00;46.17;;;28.33;;
14474;SDS011;7323;50.848;4.334;2023-02-11T10:25:38;47.53;;;26.30;;
14474;SDS011;7323;50.848;4.334;2023-02-11T10:28:14;47.17;;;27.17;;
14474;SDS011;7323;50.848;4.334;2023-02-11T10:30:45;45.30;;;26.93;;
14474;SDS011;7323;50.848;4.334;2023-02-11T10:36:00;50.47;;;27.77;;
14474;SDS011;7323;50.848;4.334;2023-02-11T10:38:29;46.57;;;27.53;;
14474;SDS011;7323;50.848;4.334;2023-02-11T10:40:58;51.47;;;29.80;;
14474;SDS011;7323;50.848;4.334;2023-02-11T10:43:25;53.93;;;29.77;;
14474;SDS011;7323;50.848;4.334;2023-02-11T10:51:32;46.37;;;28.23;;
14474;SDS011;7323;50.848;4.334;2023-02-11T10:56:44;50.93;;;29.40;;
14474;SDS011;7323;50.848;4.334;2023-02-11T10:59:31;46.30;;;28.03;;
14474;SDS011;7323;50.848;4.334;2023-02-11T11:05:05;50.93;;;30.27;;
14474;SDS011;7323;50.848;4.334;2023-02-11T11:07:50;48.43;;;28.77;;
14474;SDS011;7323;50.848;4.334;2023-02-11T11:10:47;56.37;;;30.83;;
14474;SDS011;7323;50.848;4.334;2023-02-11T11:13:38;52.70;;;29.53;;
14474;SDS011;7323;50.848;4.334;2023-02-11T11:18:42;50.40;;;30.00;;
14474;SDS011;7323;50.848;4.334;2023-02-11T11:21:20;55.13;;;29.93;;
14474;SDS011;7323;50.848;4.334;2023-02-11T11:23:57;48.37;;;30.17;;
14474;SDS011;7323;50.848;4.334;2023-02-11T11:26:25;51.03;;;30.50;;
14474;SDS011;7323;50.848;4.334;2023-02-11T11:31:23;47.27;;;29.83;;
14474;SDS011;7323;50.848;4.334;2023-02-11T11:33:58;47.63;;;30.67;;
14474;SDS011;7323;50.848;4.334;2023-02-11T11:36:35;50.60;;;30.63;;
14474;SDS011;7323;50.848;4.334;2023-02-11T11:39:49;47.57;;;28.83;;
14474;SDS011;7323;50.848;4.334;2023-02-11T11:41:51;51.57;;;32.23;;
14474;SDS011;7323;50.848;4.334;2023-02-11T11:44:28;50.50;;;30.57;;
14474;SDS011;7323;50.848;4.334;2023-02-11T11:56:10;50.50;;;30.53;;
14474;SDS011;7323;50.848;4.334;2023-02-11T11:58:38;53.73;;;31.30;;
14474;SDS011;7323;50.848;4.334;2023-02-11T12:13:41;56.57;;;32.80;;
14474;SDS011;7323;50.848;4.334;2023-02-11T12:19:51;58.00;;;32.63;;
14474;SDS011;7323;50.848;4.334;2023-02-11T12:22:20;56.23;;;32.17;;
14474;SDS011;7323;50.848;4.334;2023-02-11T12:29:47;57.67;;;32.03;;
14474;SDS011;7323;50.848;4.334;2023-02-11T12:32:43;54.73;;;31.33;;
14474;SDS011;7323;50.848;4.334;2023-02-11T12:35:27;48.03;;;29.63;;
14474;SDS011;7323;50.848;4.334;2023-02-11T12:44:14;55.80;;;31.53;;
14474;SDS011;7323;50.848;4.334;2023-02-11T12:46:56;52.07;;;32.77;;
14474;SDS011;7323;50.848;4.334;2023-02-11T12:52:30;54.13;;;32.47;;
14474;SDS011;7323;50.848;4.334;2023-02-11T12:55:32;51.30;;;31.40;;
14474;SDS011;7323;50.848;4.334;2023-02-11T12:58:01;54.00;;;31.63;;
14474;SDS011;7323;50.848;4.334;2023-02-11T13:05:37;52.10;;;31.67;;
14474;SDS011;7323;50.848;4.334;2023-02-11T13:08:09;54.03;;;32.67;;
14474;SDS011;7323;50.848;4.334;2023-02-11T13:10:47;56.40;;;33.20;;
14474;SDS011;7323;50.848;4.334;2023-02-11T13:13:21;55.70;;;33.23;;
14474;SDS011;7323;50.848;4.334;2023-02-11T13:15:52;61.70;;;32.83;;
14474;SDS011;7323;50.848;4.334;2023-02-11T13:18:31;52.80;;;31.60;;
14474;SDS011;7323;50.848;4.334;2023-02-11T13:21:17;53.40;;;32.80;;
14474;SDS011;7323;50.848;4.334;2023-02-11T13:26:44;50.73;;;31.50;;
14474;SDS011;7323;50.848;4.334;2023-02-11T13:31:57;56.07;;;32.80;;
14474;SDS011;7323;50.848;4.334;2023-02-11T13:43:02;52.60;;;32.90;;
14474;SDS011;7323;50.848;4.334;2023-02-11T13:48:30;49.97;;;32.43;;
14474;SDS011;7323;50.848;4.334;2023-02-11T13:50:59;44.13;;;31.30;;
14474;SDS011;7323;50.848;4.334;2023-02-11T13:56:30;57.27;;;33.70;;
14474;SDS011;7323;50.848;4.334;2023-02-11T13:59:00;47.33;;;32.13;;
14474;SDS011;7323;50.848;4.334;2023-02-11T14:01:37;59.00;;;34.10;;
14474;SDS011;7323;50.848;4.334;2023-02-11T14:04:18;52.23;;;32.73;;
14474;SDS011;7323;50.848;4.334;2023-02-11T14:26:28;53.43;;;34.03;;
14474;SDS011;7323;50.848;4.334;2023-02-11T14:29:08;51.73;;;33.60;;
14474;SDS011;7323;50.848;4.334;2023-02-11T14:31:57;52.77;;;34.70;;
14474;SDS011;7323;50.848;4.334;2023-02-11T14:42:55;53.00;;;35.50;;
14474;SDS011;7323;50.848;4.334;2023-02-11T14:45:28;50.60;;;34.80;;
14474;SDS011;7323;50.848;4.334;2023-02-11T14:48:14;52.60;;;35.97;;
14474;SDS011;7323;50.848;4.334;2023-02-11T14:50:43;49.77;;;34.00;;
14474;SDS011;7323;50.848;4.334;2023-02-11T14:53:18;49.73;;;33.73;;
14474;SDS011;7323;50.848;4.334;2023-02-11T14:55:51;54.63;;;35.33;;
14474;SDS011;7323;50.848;4.334;2023-02-11T15:00:49;49.60;;;35.43;;
14474;SDS011;7323;50.848;4.334;2023-02-11T15:06:05;47.70;;;34.83;;
14474;SDS011;7323;50.848;4.334;2023-02-11T15:08:44;52.00;;;33.80;;
14474;SDS011;7323;50.848;4.334;2023-02-11T15:11:14;47.30;;;35.03;;
14474;SDS011;7323;50.848;4.334;2023-02-11T15:13:42;48.73;;;35.33;;
14474;SDS011;7323;50.848;4.334;2023-02-11T15:16:11;52.03;;;35.10;;
14474;SDS011;7323;50.848;4.334;2023-02-11T15:18:44;49.80;;;33.73;;
14474;SDS011;7323;50.848;4.334;2023-02-11T15:21:18;51.60;;;35.00;;
14474;SDS011;7323;50.848;4.334;2023-02-11T15:23:53;51.60;;;35.93;;
14474;SDS011;7323;50.848;4.334;2023-02-11T15:26:21;50.57;;;35.40;;
14474;SDS011;7323;50.848;4.334;2023-02-11T15:28:47;55.23;;;35.37;;
14474;SDS011;7323;50.848;4.334;2023-02-11T15:31:18;59.47;;;37.03;;
14474;SDS011;7323;50.848;4.334;2023-02-11T15:33:47;51.63;;;35.63;;
14474;SDS011;7323;50.848;4.334;2023-02-11T15:36:14;49.70;;;35.23;;
14474;SDS011;7323;50.848;4.334;2023-02-11T15:38:44;48.47;;;34.70;;
14474;SDS011;7323;50.848;4.334;2023-02-11T15:41:41;51.30;;;33.63;;
14474;SDS011;7323;50.848;4.334;2023-02-11T15:44:30;49.03;;;34.37;;
14474;SDS011;7323;50.848;4.334;2023-02-11T15:46:57;48.40;;;36.07;;
14474;SDS011;7323;50.848;4.334;2023-02-11T15:49:24;51.23;;;34.33;;
14474;SDS011;7323;50.848;4.334;2023-02-11T15:51:53;48.77;;;35.43;;
14474;SDS011;7323;50.848;4.334;2023-02-11T15:54:28;51.73;;;35.00;;
14474;SDS011;7323;50.848;4.334;2023-02-11T15:57:01;51.93;;;35.00;;
14474;SDS011;7323;50.848;4.334;2023-02-11T15:59:34;47.50;;;34.90;;
14474;SDS011;7323;50.848;4.334;2023-02-11T16:04:57;50.83;;;36.57;;
14474;SDS011;7323;50.848;4.334;2023-02-11T16:07:39;51.13;;;34.63;;
14474;SDS011;7323;50.848;4.334;2023-02-11T16:10:29;47.33;;;34.73;;
14474;SDS011;7323;50.848;4.334;2023-02-11T16:18:01;47.80;;;35.87;;
14474;SDS011;7323;50.848;4.334;2023-02-11T16:20:31;52.03;;;36.97;;
14474;SDS011;7323;50.848;4.334;2023-02-11T16:22:58;48.87;;;36.17;;
14474;SDS011;7323;50.848;4.334;2023-02-11T16:25:25;48.70;;;37.17;;
14474;SDS011;7323;50.848;4.334;2023-02-11T16:27:51;50.67;;;37.43;;
14474;SDS011;7323;50.848;4.334;2023-02-11T16:30:22;52.37;;;37.73;;
14474;SDS011;7323;50.848;4.334;2023-02-11T16:32:59;53.17;;;38.73;;
14474;SDS011;7323;50.848;4.334;2023-02-11T16:35:24;52.23;;;37.27;;
14474;SDS011;7323;50.848;4.334;2023-02-11T16:37:50;51.80;;;37.33;;
14474;SDS011;7323;50.848;4.334;2023-02-11T16:40:16;47.67;;;35.17;;
14474;SDS011;7323;50.848;4.334;2023-02-11T16:42:42;47.23;;;36.57;;
14474;SDS011;7323;50.848;4.334;2023-02-11T16:45:09;51.33;;;36.00;;
14474;SDS011;7323;50.848;4.334;2023-02-11T16:47:34;47.27;;;36.80;;
14474;SDS011;7323;50.848;4.334;2023-02-11T16:50:07;50.80;;;36.90;;
14474;SDS011;7323;50.848;4.334;2023-02-11T16:52:34;48.90;;;37.07;;
14474;SDS011;7323;50.848;4.334;2023-02-11T16:55:01;49.90;;;38.70;;
14474;SDS011;7323;50.848;4.334;2023-02-11T16:57:29;51.20;;;38.23;;
14474;SDS011;7323;50.848;4.334;2023-02-11T16:59:55;56.07;;;39.70;;
14474;SDS011;7323;50.848;4.334;2023-02-11T17:02:24;53.23;;;39.80;;
14474;SDS011;7323;50.848;4.334;2023-02-11T17:04:56;53.43;;;39.97;;
14474;SDS011;7323;50.848;4.334;2023-02-11T17:07:23;53.63;;;39.97;;
14474;SDS011;7323;50.848;4.334;2023-02-11T17:10:14;50.90;;;38.93;;
14474;SDS011;7323;50.848;4.334;2023-02-11T17:12:47;56.00;;;41.67;;
14474;SDS011;7323;50.848;4.334;2023-02-11T17:15:14;54.70;;;42.53;;
14474;SDS011;7323;50.848;4.334;2023-02-11T17:17:40;56.13;;;41.10;;
14474;SDS011;7323;50.848;4.334;2023-02-11T17:20:06;54.53;;;41.63;;
14474;SDS011;7323;50.848;4.334;2023-02-11T17:22:34;51.87;;;40.80;;
14474;SDS011;7323;50.848;4.334;2023-02-11T17:25:00;53.03;;;41.90;;
14474;SDS011;7323;50.848;4.334;2023-02-11T17:27:25;54.50;;;40.13;;
14474;SDS011;7323;50.848;4.334;2023-02-11T17:29:53;52.17;;;40.57;;
14474;SDS011;7323;50.848;4.334;2023-02-11T17:32:19;54.17;;;41.43;;
14474;SDS011;7323;50.848;4.334;2023-02-11T17:34:44;53.03;;;40.50;;
14474;SDS011;7323;50.848;4.334;2023-02-11T17:37:12;51.37;;;40.33;;
14474;SDS011;7323;50.848;4.334;2023-02-11T17:39:38;52.53;;;39.43;;
14474;SDS011;7323;50.848;4.334;2023-02-11T17:42:04;51.47;;;40.70;;
14474;SDS011;7323;50.848;4.334;2023-02-11T17:44:31;52.00;;;40.00;;
14474;SDS011;7323;50.848;4.334;2023-02-11T17:46:57;49.97;;;39.57;;
14474;SDS011;7323;50.848;4.334;2023-02-11T17:49:23;51.90;;;39.57;;
14474;SDS011;7323;50.848;4.334;2023-02-11T17:51:49;51.37;;;39.90;;
14474;SDS011;7323;50.848;4.334;2023-02-11T17:54:15;49.23;;;39.10;;
14474;SDS011;7323;50.848;4.334;2023-02-11T17:56:42;48.80;;;39.67;;
14474;SDS011;7323;50.848;4.334;2023-02-11T17:59:09;49.63;;;39.20;;
14474;SDS011;7323;50.848;4.334;2023-02-11T18:01:42;46.60;;;38.50;;
14474;SDS011;7323;50.848;4.334;2023-02-11T18:04:09;48.33;;;38.50;;